Time;durP1;ratioP1;P1;durP2;ratioP2;P2;SDS_P1;SDS_P2;PMS_P1;PMS_P2;Temp;Humidity;BMP_temperature;BMP_pressure;BME280_temperature;BME280_humidity;BME280_pressure;Samples;Min_cycle;Max_cycle;Signal;HPM_P1;HPM_P2
2023/04/02 00:00:10;;;;;;;6.63;4.10;;;3.70;99.90;;;;;;5014984;28;20258;-81
2023/04/02 00:02:57;;;;;;;6.50;5.43;;;3.70;99.90;;;;;;5015658;28;20199;-81
2023/04/02 00:05:29;;;;;;;5.77;4.47;;;3.60;99.90;;;;;;5015880;28;20573;-80
2023/04/02 00:08:16;;;;;;;5.43;3.57;;;3.60;99.90;;;;;;5018303;28;20289;-78
2023/04/02 00:10:58;;;;;;;5.67;4.93;;;3.60;99.90;;;;;;5018336;28;20315;-80
2023/04/02 00:13:43;;;;;;;6.40;4.07;;;3.60;99.90;;;;;;5019466;28;20206;-81
2023/04/02 00:16:12;;;;;;;5.90;4.53;;;3.60;99.90;;;;;;5018962;28;20279;-81
2023/04/02 00:18:44;;;;;;;4.93;3.87;;;3.60;99.90;;;;;;5019412;28;20203;-83
2023/04/02 00:21:19;;;;;;;4.63;4.23;;;3.60;99.90;;;;;;5016662;28;20536;-80
2023/04/02 00:23:45;;;;;;;4.70;3.57;;;3.60;99.90;;;;;;5018667;28;20278;-79
2023/04/02 00:26:32;;;;;;;6.20;4.03;;;3.60;99.90;;;;;;5018785;28;20199;-76
2023/04/02 00:29:04;;;;;;;4.73;4.27;;;3.60;99.90;;;;;;5018440;28;20273;-78
2023/04/02 00:31:30;;;;;;;4.53;4.07;;;3.60;99.90;;;;;;5016412;28;20735;-82
2023/04/02 00:33:58;;;;;;;3.83;3.47;;;3.60;99.90;;;;;;5018244;28;20265;-74
2023/04/02 00:36:28;;;;;;;4.63;3.80;;;3.70;99.90;;;;;;5018229;28;20654;-82
2023/04/02 00:38:57;;;;;;;6.60;3.83;;;3.60;99.90;;;;;;5017922;28;20704;-81
2023/04/02 00:41:34;;;;;;;8.50;4.13;;;3.70;99.90;;;;;;5015241;28;20257;-79
2023/04/02 00:44:01;;;;;;;5.70;3.43;;;3.70;99.90;;;;;;5017793;28;20240;-79
2023/04/02 00:46:31;;;;;;;5.23;3.60;;;3.70;99.90;;;;;;5017535;28;20224;-81
2023/04/02 00:49:16;;;;;;;5.87;3.80;;;3.60;99.90;;;;;;5017940;28;20281;-81
2023/04/02 00:51:45;;;;;;;4.70;3.53;;;3.60;99.90;;;;;;5016658;28;20956;-81
2023/04/02 00:54:15;;;;;;;4.80;3.87;;;3.60;99.90;;;;;;5016492;28;20218;-78
2023/04/02 00:56:47;;;;;;;4.37;4.07;;;3.50;99.90;;;;;;5014960;28;20714;-79
2023/04/02 00:59:32;;;;;;;5.57;4.27;;;3.60;99.90;;;;;;5016211;28;20567;-79
2023/04/02 01:02:13;;;;;;;4.43;3.67;;;3.60;99.90;;;;;;5017249;28;20202;-81
2023/04/02 01:04:40;;;;;;;6.73;4.03;;;3.50;99.90;;;;;;5015626;28;20860;-78
2023/04/02 01:07:09;;;;;;;7.03;3.60;;;3.50;99.90;;;;;;5017800;28;20234;-80
2023/04/02 01:09:54;;;;;;;3.93;3.30;;;3.50;99.90;;;;;;5017420;28;20199;-80
2023/04/02 01:12:25;;;;;;;4.47;4.07;;;3.50;99.90;;;;;;5016717;28;20213;-81
2023/04/02 01:15:34;;;;;;;6.70;4.17;;;3.50;99.90;;;;;;5018036;28;20198;-81
2023/04/02 01:18:25;;;;;;;7.27;3.90;;;3.50;99.90;;;;;;4972308;28;20560;-75
2023/04/02 01:21:05;;;;;;;4.97;3.93;;;3.50;99.90;;;;;;4971108;28;20733;-69
2023/04/02 01:23:45;;;;;;;5.77;4.27;;;3.60;99.90;;;;;;5004920;28;20252;-69
2023/04/02 01:26:39;;;;;;;4.73;4.37;;;3.60;99.90;;;;;;5013867;28;20226;-68
2023/04/02 01:29:12;;;;;;;6.13;3.80;;;3.70;99.90;;;;;;4999657;28;20230;-70
2023/04/02 01:31:39;;;;;;;4.40;3.77;;;3.90;99.90;;;;;;5017019;28;20234;-70
2023/04/02 01:34:10;;;;;;;4.83;3.53;;;4.00;99.90;;;;;;5017652;28;20564;-70
2023/04/02 01:36:52;;;;;;;5.80;3.93;;;3.90;99.90;;;;;;5021112;28;20236;-69
2023/04/02 01:39:46;;;;;;;6.70;4.07;;;3.90;99.90;;;;;;5017890;28;20199;-69
2023/04/02 01:42:30;;;;;;;4.23;3.80;;;3.90;99.90;;;;;;5016828;28;20211;-69
2023/04/02 01:45:01;;;;;;;5.40;3.57;;;3.90;99.90;;;;;;5016369;28;20392;-69
2023/04/02 01:47:28;;;;;;;6.30;3.67;;;3.90;99.90;;;;;;5017168;28;20658;-70
2023/04/02 01:50:03;;;;;;;4.83;4.43;;;3.90;99.90;;;;;;5015002;28;20264;-69
2023/04/02 01:52:41;;;;;;;7.43;2.93;;;3.80;99.90;;;;;;5015502;28;20223;-69
2023/04/02 01:55:08;;;;;;;3.00;2.80;;;3.80;99.90;;;;;;5014191;28;20629;-69
2023/04/02 01:57:33;;;;;;;4.30;3.10;;;3.80;99.90;;;;;;5016711;28;20218;-67
2023/04/02 02:00:00;;;;;;;3.47;3.17;;;3.90;99.90;;;;;;5012416;28;20573;-60
2023/04/02 02:02:26;;;;;;;5.67;3.20;;;3.90;99.90;;;;;;5016503;28;20207;-62
2023/04/02 02:04:52;;;;;;;4.43;4.03;;;3.90;99.90;;;;;;5016438;28;20203;-63
2023/04/02 02:07:19;;;;;;;3.07;2.87;;;3.90;99.90;;;;;;5014481;28;20202;-61
2023/04/02 02:09:46;;;;;;;8.17;3.10;;;3.90;99.90;;;;;;5016972;28;20213;-62
2023/04/02 02:12:13;;;;;;;3.33;2.93;;;3.90;99.90;;;;;;5016604;28;20781;-64
2023/04/02 02:14:46;;;;;;;3.83;3.03;;;4.00;99.90;;;;;;5032178;28;20833;-62
2023/04/02 02:17:16;;;;;;;2.83;2.40;;;4.00;99.90;;;;;;5016368;28;20219;-66
2023/04/02 02:19:52;;;;;;;4.80;2.83;;;3.90;99.90;;;;;;5014575;28;20765;-67
2023/04/02 02:22:27;;;;;;;3.53;3.23;;;3.80;99.90;;;;;;5021225;28;20214;-70
2023/04/02 02:24:54;;;;;;;3.20;3.00;;;3.70;99.90;;;;;;5007598;28;20202;-66
2023/04/02 02:27:20;;;;;;;5.80;3.10;;;3.60;99.90;;;;;;5016364;28;20675;-70
2023/04/02 02:29:50;;;;;;;5.53;3.20;;;3.60;99.90;;;;;;5016442;28;20207;-68
2023/04/02 02:32:19;;;;;;;6.00;3.33;;;3.60;99.90;;;;;;5015441;28;20217;-68
2023/04/02 02:34:55;;;;;;;3.93;2.50;;;3.60;99.90;;;;;;5014630;28;20808;-68
2023/04/02 02:37:25;;;;;;;5.20;3.60;;;3.60;99.90;;;;;;5015868;28;20223;-68
2023/04/02 02:39:54;;;;;;;4.87;2.83;;;3.60;99.90;;;;;;5011412;28;20206;-67
2023/04/02 02:42:30;;;;;;;3.23;3.03;;;3.60;99.90;;;;;;5011559;28;20238;-67
2023/04/02 02:44:59;;;;;;;5.50;3.20;;;3.50;99.90;;;;;;5014836;28;20257;-67
2023/04/02 02:47:27;;;;;;;4.93;3.50;;;3.50;99.90;;;;;;5020949;28;20219;-67
2023/04/02 02:49:56;;;;;;;3.37;2.80;;;3.60;99.90;;;;;;5016469;28;20207;-66
2023/04/02 02:52:35;;;;;;;3.97;3.33;;;3.60;99.90;;;;;;5016011;28;20297;-66
2023/04/02 02:55:09;;;;;;;3.27;3.00;;;3.60;99.90;;;;;;5012645;28;20229;-67
2023/04/02 02:57:39;;;;;;;4.13;2.90;;;3.60;99.90;;;;;;5014588;28;20207;-67
2023/04/02 03:00:08;;;;;;;5.47;2.70;;;3.70;99.90;;;;;;5016091;28;20224;-67
2023/04/02 03:02:36;;;;;;;2.90;2.70;;;3.60;99.90;;;;;;5020623;28;20547;-67
2023/04/02 03:05:03;;;;;;;6.80;3.60;;;3.60;99.90;;;;;;5015945;28;20203;-67
2023/04/02 03:07:30;;;;;;;6.10;3.63;;;3.60;99.90;;;;;;5014153;28;20310;-66
2023/04/02 03:10:38;;;;;;;5.57;3.03;;;3.60;99.90;;;;;;5011737;28;20203;-67
2023/04/02 03:13:31;;;;;;;5.73;3.37;;;3.60;99.90;;;;;;5018848;28;20265;-66
2023/04/02 03:16:15;;;;;;;4.23;2.80;;;3.60;99.90;;;;;;5015724;28;20231;-67
2023/04/02 03:18:53;;;;;;;3.97;2.30;;;3.60;99.90;;;;;;5015331;28;20219;-67
2023/04/02 03:21:42;;;;;;;5.10;2.47;;;3.70;99.90;;;;;;5011860;28;20622;-67
2023/04/02 03:24:37;;;;;;;4.03;2.60;;;3.70;99.90;;;;;;5012157;28;20649;-67
2023/04/02 03:27:20;;;;;;;2.63;2.43;;;3.70;99.90;;;;;;5014560;28;20221;-66
2023/04/02 03:29:57;;;;;;;5.30;3.40;;;3.70;99.90;;;;;;5013056;28;20732;-66
2023/04/02 03:32:28;;;;;;;2.67;2.30;;;3.60;99.90;;;;;;5011570;28;20591;-67
2023/04/02 03:35:01;;;;;;;3.33;2.40;;;3.60;99.90;;;;;;5016002;28;20678;-68
2023/04/02 03:37:41;;;;;;;3.40;2.50;;;3.60;99.90;;;;;;5019369;28;20224;-68
2023/04/02 03:40:14;;;;;;;4.83;2.53;;;3.60;99.90;;;;;;5014752;28;20527;-68
2023/04/02 03:42:51;;;;;;;3.00;2.70;;;3.50;99.90;;;;;;5018648;28;20188;-67
2023/04/02 03:45:38;;;;;;;2.13;1.93;;;3.50;99.90;;;;;;5016141;28;20570;-69
2023/04/02 03:48:10;;;;;;;6.70;3.63;;;3.60;99.90;;;;;;5015536;28;20286;-68
2023/04/02 03:50:45;;;;;;;4.03;2.17;;;3.60;99.90;;;;;;5017688;28;20230;-68
2023/04/02 03:53:11;;;;;;;3.77;2.67;;;3.60;99.90;;;;;;5017714;28;20213;-67
2023/04/02 03:55:39;;;;;;;4.13;3.17;;;3.60;99.90;;;;;;5019254;28;20231;-67
2023/04/02 03:58:19;;;;;;;2.93;2.10;;;3.70;99.90;;;;;;5019016;28;20886;-67
2023/04/02 04:00:56;;;;;;;2.80;2.60;;;3.60;99.90;;;;;;5016999;28;20205;-66
2023/04/02 04:03:42;;;;;;;2.83;2.57;;;3.60;99.90;;;;;;5019418;28;20197;-67
2023/04/02 04:06:19;;;;;;;3.40;2.17;;;3.60;99.90;;;;;;5015188;28;20281;-68
2023/04/02 04:08:55;;;;;;;3.57;2.80;;;3.60;99.90;;;;;;5018850;28;20319;-67
2023/04/02 04:11:27;;;;;;;2.30;2.20;;;3.60;99.90;;;;;;5014632;28;20271;-68
2023/04/02 04:14:02;;;;;;;3.00;2.70;;;3.50;99.90;;;;;;5012876;28;20353;-66
2023/04/02 04:16:33;;;;;;;3.23;2.93;;;3.60;99.90;;;;;;5016152;28;20266;-66
2023/04/02 04:19:21;;;;;;;2.70;2.50;;;3.70;99.90;;;;;;5018054;28;20358;-66
2023/04/02 04:21:46;;;;;;;4.80;3.13;;;3.70;99.90;;;;;;5015074;28;20199;-66
2023/04/02 04:24:22;;;;;;;2.83;2.40;;;3.60;99.90;;;;;;5018408;28;20206;-67
2023/04/02 04:26:56;;;;;;;4.47;2.63;;;3.60;99.90;;;;;;5018154;28;21060;-69
2023/04/02 04:29:44;;;;;;;3.17;2.37;;;3.70;99.90;;;;;;5014260;28;20204;-69
2023/04/02 04:33:04;;;;;;;2.70;2.50;;;3.70;99.90;;;;;;5013759;28;20194;-69
2023/04/02 04:35:36;;;;;;;8.00;3.00;;;3.70;99.90;;;;;;4972865;28;20675;-69
2023/04/02 04:38:26;;;;;;;2.63;2.37;;;3.70;99.90;;;;;;5006691;28;20277;-68
2023/04/02 04:40:56;;;;;;;4.03;3.23;;;3.70;99.90;;;;;;5014337;28;20535;-68
2023/04/02 04:43:41;;;;;;;4.13;2.00;;;3.70;99.90;;;;;;5018353;28;20566;-68
2023/04/02 04:46:15;;;;;;;2.97;2.70;;;3.70;99.90;;;;;;5014202;28;20227;-67
2023/04/02 04:49:06;;;;;;;4.13;2.80;;;3.70;99.90;;;;;;5017494;28;21078;-66
2023/04/02 04:51:55;;;;;;;2.77;2.57;;;3.70;99.90;;;;;;5015597;28;20211;-66
2023/04/02 04:54:25;;;;;;;2.93;2.70;;;3.80;99.90;;;;;;5017841;28;20203;-67
2023/04/02 04:56:55;;;;;;;2.60;2.40;;;3.80;99.90;;;;;;5017883;28;20199;-67
2023/04/02 04:59:25;;;;;;;3.43;2.63;;;3.80;99.90;;;;;;5017947;28;20624;-66
2023/04/02 05:01:58;;;;;;;6.63;3.40;;;3.80;99.90;;;;;;5014032;28;20554;-67
2023/04/02 05:04:39;;;;;;;3.10;2.73;;;3.70;99.90;;;;;;5017997;28;20229;-68
2023/04/02 05:07:44;;;;;;;7.80;3.83;;;3.70;99.90;;;;;;5014240;28;20248;-66
2023/04/02 05:10:20;;;;;;;3.93;2.50;;;3.70;99.90;;;;;;4992216;28;20294;-66
2023/04/02 05:13:12;;;;;;;3.43;2.37;;;3.70;99.90;;;;;;5016730;28;20210;-66
2023/04/02 05:15:44;;;;;;;5.00;2.40;;;3.70;99.90;;;;;;5016030;28;20237;-67
2023/04/02 05:18:36;;;;;;;2.47;2.27;;;3.70;99.90;;;;;;5017820;28;20222;-66
2023/04/02 05:21:06;;;;;;;4.30;2.50;;;3.70;99.90;;;;;;5013612;28;20798;-66
2023/04/02 05:23:43;;;;;;;3.63;2.10;;;3.70;99.90;;;;;;5017480;28;20748;-67
2023/04/02 05:26:17;;;;;;;1.93;1.43;;;3.60;99.90;;;;;;5013176;28;20234;-68
2023/04/02 05:29:05;;;;;;;4.57;1.53;;;3.60;99.90;;;;;;5014752;28;20561;-67
2023/04/02 05:31:39;;;;;;;4.30;1.53;;;3.70;99.90;;;;;;5015104;28;20263;-67
2023/04/02 05:34:05;;;;;;;1.73;1.63;;;3.60;99.90;;;;;;5012876;28;20198;-67
2023/04/02 05:36:31;;;;;;;2.50;2.10;;;3.60;99.90;;;;;;5013700;28;20693;-66
2023/04/02 05:38:58;;;;;;;7.07;2.33;;;3.70;99.90;;;;;;5016717;28;20968;-66
2023/04/02 05:41:29;;;;;;;3.97;2.43;;;3.80;99.90;;;;;;5017008;28;20191;-66
2023/04/02 05:44:17;;;;;;;4.90;2.43;;;3.90;99.90;;;;;;5014261;28;20650;-66
2023/04/02 05:46:52;;;;;;;1.80;1.63;;;3.90;99.90;;;;;;5015641;28;20277;-65
2023/04/02 05:49:43;;;;;;;2.67;2.47;;;3.90;99.90;;;;;;5013014;28;20218;-65
2023/04/02 05:52:15;;;;;;;3.17;1.73;;;3.90;99.90;;;;;;5011974;28;20674;-65
2023/04/02 05:54:53;;;;;;;3.57;1.90;;;3.90;99.90;;;;;;5016692;28;20573;-65
2023/04/02 05:57:31;;;;;;;6.13;2.30;;;4.00;99.90;;;;;;5011978;28;20709;-65
2023/04/02 06:00:02;;;;;;;3.80;2.17;;;4.00;99.90;;;;;;5016699;28;20257;-65
2023/04/02 06:02:33;;;;;;;3.73;1.70;;;4.00;99.90;;;;;;5014910;28;20284;-66
2023/04/02 06:05:05;;;;;;;3.40;1.30;;;4.00;99.90;;;;;;5016548;28;20677;-66
2023/04/02 06:07:50;;;;;;;1.87;1.50;;;4.00;99.90;;;;;;5016882;28;20512;-66
2023/04/02 06:10:24;;;;;;;3.23;1.93;;;4.10;99.90;;;;;;5016537;28;20937;-65
2023/04/02 06:13:02;;;;;;;6.20;2.00;;;4.20;99.90;;;;;;5017380;28;20191;-66
2023/04/02 06:15:29;;;;;;;3.57;1.47;;;4.30;99.90;;;;;;5013540;28;20656;-66
2023/04/02 06:18:15;;;;;;;1.83;1.50;;;4.20;99.90;;;;;;5018216;28;20709;-66
2023/04/02 06:20:40;;;;;;;2.40;2.20;;;4.20;99.90;;;;;;5011929;28;20203;-66
2023/04/02 06:23:29;;;;;;;3.10;1.40;;;4.30;99.90;;;;;;5022357;28;20678;-66
2023/04/02 06:26:32;;;;;;;3.07;1.57;;;4.40;99.90;;;;;;5014608;28;20216;-66
2023/04/02 06:29:12;;;;;;;3.63;1.40;;;4.50;99.90;;;;;;5004725;28;20760;-66
2023/04/02 06:31:47;;;;;;;2.87;1.50;;;4.60;99.90;;;;;;5013241;28;20234;-66
2023/04/02 06:34:27;;;;;;;4.23;1.50;;;4.50;99.90;;;;;;5014549;28;20195;-66
2023/04/02 06:37:02;;;;;;;4.03;1.17;;;4.80;99.90;;;;;;5016240;28;20202;-66
2023/04/02 06:39:28;;;;;;;3.93;1.47;;;4.90;99.90;;;;;;5013466;28;20260;-67
2023/04/02 06:42:09;;;;;;;4.60;1.70;;;4.80;99.90;;;;;;5016226;28;20199;-66
2023/04/02 06:44:36;;;;;;;1.90;1.67;;;4.90;99.90;;;;;;5012652;28;20235;-66
2023/04/02 06:47:21;;;;;;;4.53;1.87;;;4.90;99.90;;;;;;5011702;28;20203;-66
2023/04/02 06:50:02;;;;;;;3.37;1.23;;;4.80;99.90;;;;;;5020388;28;20960;-66
2023/04/02 06:52:50;;;;;;;1.70;1.20;;;4.80;99.90;;;;;;5013507;28;20238;-66
2023/04/02 06:55:41;;;;;;;5.83;2.23;;;4.90;99.90;;;;;;5011742;28;20223;-66
2023/04/02 06:58:08;;;;;;;3.87;1.70;;;4.80;99.90;;;;;;5011190;28;20218;-65
2023/04/02 07:00:40;;;;;;;2.87;1.97;;;4.70;99.90;;;;;;5016012;28;20301;-65
2023/04/02 07:03:14;;;;;;;2.97;1.60;;;4.80;99.90;;;;;;5015830;28;20206;-66
2023/04/02 07:05:40;;;;;;;2.60;1.10;;;4.90;99.90;;;;;;5014060;28;20206;-66
2023/04/02 07:08:06;;;;;;;2.17;1.50;;;4.90;99.90;;;;;;5016403;28;20562;-66
2023/04/02 07:10:32;;;;;;;2.90;1.90;;;4.90;99.90;;;;;;5015792;28;20296;-67
2023/04/02 07:12:58;;;;;;;5.10;1.57;;;4.90;99.90;;;;;;5016100;28;20233;-67
2023/04/02 07:15:24;;;;;;;1.57;1.23;;;5.20;99.90;;;;;;5015872;28;20198;-67
2023/04/02 07:17:51;;;;;;;4.13;1.50;;;5.20;99.90;;;;;;5015453;28;20207;-66
2023/04/02 07:20:29;;;;;;;2.73;1.20;;;5.20;99.90;;;;;;5012560;28;20574;-66
2023/04/02 07:22:55;;;;;;;2.93;1.13;;;5.20;99.90;;;;;;5013896;28;20286;-67
2023/04/02 07:25:22;;;;;;;1.70;1.20;;;5.40;99.90;;;;;;5015386;28;20210;-68
2023/04/02 07:27:48;;;;;;;1.13;0.93;;;5.40;99.90;;;;;;5013936;28;20684;-68
2023/04/02 07:30:14;;;;;;;2.47;1.10;;;5.40;99.90;;;;;;5013531;28;20211;-67
2023/04/02 07:32:40;;;;;;;1.40;1.30;;;5.50;99.90;;;;;;5015334;28;20676;-67
2023/04/02 07:35:06;;;;;;;3.67;1.60;;;5.40;99.90;;;;;;5015494;28;20195;-68
2023/04/02 07:37:32;;;;;;;1.00;1.00;;;5.30;99.90;;;;;;5013488;28;20845;-67
2023/04/02 07:39:57;;;;;;;1.83;1.40;;;5.30;99.90;;;;;;5015262;28;20203;-68
2023/04/02 07:42:23;;;;;;;1.20;1.10;;;5.40;99.90;;;;;;5015229;28;20807;-68
2023/04/02 07:44:48;;;;;;;2.07;1.83;;;5.70;99.90;;;;;;5015763;28;20257;-69
2023/04/02 07:47:14;;;;;;;3.97;1.60;;;5.90;99.90;;;;;;5017908;28;20207;-68
2023/04/02 07:49:39;;;;;;;5.27;1.20;;;6.20;99.90;;;;;;5020116;28;20198;-68
2023/04/02 07:52:05;;;;;;;4.33;1.60;;;6.00;99.90;;;;;;5028364;28;20203;-68
2023/04/02 07:54:31;;;;;;;1.53;0.87;;;5.90;99.90;;;;;;5015473;28;20211;-67
2023/04/02 07:56:56;;;;;;;2.00;1.80;;;5.80;99.90;;;;;;5015314;28;20200;-67
2023/04/02 07:59:22;;;;;;;3.47;2.13;;;5.70;99.90;;;;;;5014149;28;20200;-67
2023/04/02 08:01:47;;;;;;;4.00;1.67;;;6.00;99.90;;;;;;5010962;28;20308;-68
2023/04/02 08:04:21;;;;;;;2.67;1.10;;;6.10;99.90;;;;;;5015140;28;20701;-66
2023/04/02 08:06:48;;;;;;;3.13;1.40;;;6.00;99.90;;;;;;5015131;28;20215;-67
2023/04/02 08:09:14;;;;;;;2.93;1.13;;;6.00;99.90;;;;;;5015020;28;20199;-67
2023/04/02 08:11:41;;;;;;;2.40;1.30;;;5.90;99.90;;;;;;5013255;28;20208;-68
2023/04/02 08:14:09;;;;;;;1.20;1.10;;;6.00;99.90;;;;;;5015088;28;20711;-68
2023/04/02 08:16:50;;;;;;;1.20;1.10;;;6.10;99.90;;;;;;5015077;28;20199;-68
2023/04/02 08:19:15;;;;;;;2.63;1.63;;;5.90;99.90;;;;;;5009314;28;20211;-69
2023/04/02 08:21:41;;;;;;;1.60;1.50;;;5.90;99.90;;;;;;5010069;28;20200;-68
2023/04/02 08:24:07;;;;;;;1.17;1.07;;;5.80;99.90;;;;;;5017567;28;20297;-68
2023/04/02 08:26:32;;;;;;;1.30;1.20;;;5.80;99.90;;;;;;5017131;28;20195;-68
2023/04/02 08:28:58;;;;;;;5.17;1.23;;;5.70;99.90;;;;;;5013941;28;20663;-67
2023/04/02 08:31:23;;;;;;;1.90;1.70;;;5.60;99.90;;;;;;5018035;28;20222;-67
2023/04/02 08:33:49;;;;;;;2.47;1.90;;;5.60;99.90;;;;;;5015387;28;20223;-66
2023/04/02 08:36:18;;;;;;;2.20;2.00;;;5.80;99.90;;;;;;5018337;28;20294;-69
2023/04/02 08:38:45;;;;;;;4.40;2.40;;;5.90;99.90;;;;;;5014859;28;20215;-67
2023/04/02 08:41:26;;;;;;;4.50;2.07;;;6.00;99.90;;;;;;5018344;28;20203;-67
2023/04/02 08:44:22;;;;;;;3.23;1.90;;;6.00;99.90;;;;;;5020603;28;20214;-67
2023/04/02 08:47:07;;;;;;;1.90;1.20;;;5.90;99.90;;;;;;5018041;28;20998;-72
2023/04/02 08:49:53;;;;;;;3.20;1.83;;;6.10;99.90;;;;;;5018155;28;20767;-66
2023/04/02 08:52:31;;;;;;;2.33;1.43;;;6.10;99.90;;;;;;5018080;28;20230;-66
2023/04/02 08:54:59;;;;;;;4.07;1.40;;;6.30;99.90;;;;;;5012937;28;20194;-65
2023/04/02 08:57:35;;;;;;;2.37;1.43;;;6.30;99.90;;;;;;5014792;28;20216;-66
2023/04/02 09:00:27;;;;;;;4.27;1.27;;;6.20;99.90;;;;;;5015558;28;20604;-67
2023/04/02 09:03:01;;;;;;;4.33;1.53;;;6.20;99.90;;;;;;5013154;28;20235;-66
2023/04/02 09:05:32;;;;;;;2.40;1.37;;;5.80;99.90;;;;;;5015643;28;20202;-68
2023/04/02 09:08:01;;;;;;;4.63;2.43;;;5.50;99.90;;;;;;5017429;28;20205;-68
2023/04/02 09:10:40;;;;;;;5.93;1.43;;;5.40;99.90;;;;;;5016709;28;20199;-67
2023/04/02 09:13:16;;;;;;;5.17;1.70;;;5.30;99.90;;;;;;5017791;28;20294;-67
2023/04/02 09:15:42;;;;;;;2.47;1.33;;;5.50;99.90;;;;;;5015984;28;20211;-67
2023/04/02 09:18:17;;;;;;;4.97;1.97;;;5.90;99.90;;;;;;5014543;28;20222;-68
2023/04/02 09:20:44;;;;;;;2.33;1.57;;;6.30;99.90;;;;;;5032491;28;20548;-67
2023/04/02 09:23:21;;;;;;;4.63;2.23;;;6.60;99.90;;;;;;5015280;28;20202;-69
2023/04/02 09:25:50;;;;;;;9.00;1.47;;;6.50;99.90;;;;;;5014362;28;20195;-68
2023/04/02 09:28:16;;;;;;;2.93;1.17;;;6.30;99.90;;;;;;5016933;28;20211;-66
2023/04/02 09:31:09;;;;;;;2.77;1.17;;;6.40;99.90;;;;;;5014943;28;20268;-69
2023/04/02 09:33:43;;;;;;;1.30;0.80;;;6.60;99.90;;;;;;5014997;28;20203;-68
2023/04/02 09:36:37;;;;;;;1.63;1.17;;;6.70;99.90;;;;;;5021750;28;20677;-70
2023/04/02 09:39:16;;;;;;;3.73;1.57;;;7.30;99.90;;;;;;5016899;28;20219;-70
2023/04/02 09:41:42;;;;;;;0.93;0.90;;;7.60;99.90;;;;;;5017297;28;20199;-69
2023/04/02 09:44:12;;;;;;;1.87;1.03;;;7.80;99.60;;;;;;5021786;28;20206;-69
2023/04/02 09:46:51;;;;;;;3.23;1.20;;;7.90;99.10;;;;;;5021759;28;20297;-69
2023/04/02 09:49:20;;;;;;;1.73;1.20;;;8.30;98.30;;;;;;5016918;28;20222;-69
2023/04/02 09:52:05;;;;;;;3.37;1.27;;;8.70;97.20;;;;;;5020708;28;20368;-69
2023/04/02 09:54:30;;;;;;;3.93;1.03;;;8.90;97.00;;;;;;5014166;28;20208;-70
2023/04/02 09:57:01;;;;;;;2.17;0.87;;;8.90;96.00;;;;;;5016817;28;20210;-70
2023/04/02 09:59:27;;;;;;;1.00;0.90;;;9.20;95.90;;;;;;5016427;28;20215;-68
2023/04/02 10:01:52;;;;;;;3.77;1.30;;;9.00;96.00;;;;;;5017007;28;20208;-69
2023/04/02 10:04:43;;;;;;;2.77;1.37;;;8.80;96.00;;;;;;5021184;28;20586;-67
2023/04/02 10:07:31;;;;;;;5.77;1.30;;;8.90;96.70;;;;;;5016428;28;20258;-68
2023/04/02 10:10:03;;;;;;;4.47;1.57;;;8.50;96.00;;;;;;5016341;28;20568;-68
2023/04/02 10:12:39;;;;;;;1.70;0.80;;;8.70;96.90;;;;;;5016485;28;20203;-70
2023/04/02 10:15:12;;;;;;;1.43;1.00;;;8.70;95.90;;;;;;5014349;28;20290;-71
2023/04/02 10:17:38;;;;;;;4.47;1.30;;;8.40;96.20;;;;;;5021501;28;20211;-70
2023/04/02 10:20:26;;;;;;;1.07;0.97;;;8.30;95.80;;;;;;5015700;28;20287;-69
2023/04/02 10:22:51;;;;;;;4.57;1.73;;;8.30;96.70;;;;;;5016138;28;20249;-71
2023/04/02 10:25:20;;;;;;;5.63;1.20;;;8.40;95.30;;;;;;5016336;28;20211;-69
2023/04/02 10:28:02;;;;;;;1.90;0.90;;;8.50;95.50;;;;;;5016208;28;20218;-68
2023/04/02 10:30:40;;;;;;;1.87;1.27;;;8.70;95.80;;;;;;5014998;28;20251;-69
2023/04/02 10:33:26;;;;;;;2.63;1.30;;;8.40;94.40;;;;;;5014991;28;20200;-69
2023/04/02 10:36:03;;;;;;;2.33;1.03;;;8.20;94.60;;;;;;5015836;28;20340;-69
2023/04/02 10:39:03;;;;;;;3.80;1.47;;;8.50;95.80;;;;;;5015105;28;20205;-68
2023/04/02 10:41:48;;;;;;;2.80;1.33;;;8.80;95.10;;;;;;5012716;28;20290;-69
2023/04/02 10:45:06;;;;;;;3.10;1.27;;;9.70;94.50;;;;;;5016106;28;20195;-70
2023/04/02 10:47:39;;;;;;;2.80;1.13;;;9.70;93.40;;;;;;4989357;28;20214;-70
2023/04/02 10:50:43;;;;;;;3.37;1.33;;;9.30;91.90;;;;;;5012346;28;20298;-71
2023/04/02 10:53:23;;;;;;;2.73;1.00;;;9.10;94.10;;;;;;5016493;28;20199;-71
2023/04/02 10:56:03;;;;;;;6.43;1.77;;;9.00;93.30;;;;;;5014690;28;20238;-69
2023/04/02 10:58:36;;;;;;;4.60;1.57;;;9.20;93.10;;;;;;5016032;28;20215;-69
2023/04/02 11:01:16;;;;;;;1.93;1.03;;;9.40;93.50;;;;;;5013349;28;20963;-71
2023/04/02 11:03:52;;;;;;;4.87;1.20;;;9.20;92.90;;;;;;5015961;28;20210;-69
2023/04/02 11:06:23;;;;;;;4.80;1.53;;;9.10;93.20;;;;;;5016282;28;20207;-68
2023/04/02 11:08:54;;;;;;;2.43;1.40;;;9.10;93.10;;;;;;5015427;28;20261;-72
2023/04/02 11:11:26;;;;;;;1.57;1.07;;;9.00;93.50;;;;;;5014698;28;20211;-69
2023/04/02 11:13:59;;;;;;;4.13;1.87;;;9.10;93.30;;;;;;5011992;28;21060;-67
2023/04/02 11:16:26;;;;;;;5.73;1.87;;;9.00;93.90;;;;;;5015946;28;20329;-68
2023/04/02 11:19:13;;;;;;;2.87;1.27;;;8.90;93.30;;;;;;5016427;28;20218;-67
2023/04/02 11:21:44;;;;;;;3.80;1.73;;;8.50;92.80;;;;;;5013839;28;20983;-78
2023/04/02 11:24:35;;;;;;;4.43;1.17;;;8.40;94.10;;;;;;5014530;28;20199;-79
2023/04/02 11:27:10;;;;;;;5.33;2.07;;;7.70;94.20;;;;;;5031042;28;20884;-80
2023/04/02 11:29:45;;;;;;;5.03;1.50;;;7.70;95.10;;;;;;5021570;28;20202;-81
2023/04/02 11:32:20;;;;;;;3.60;1.27;;;8.30;95.10;;;;;;5016938;28;20191;-79
2023/04/02 11:34:48;;;;;;;2.00;1.63;;;8.40;93.60;;;;;;5011669;28;20245;-80
2023/04/02 11:37:35;;;;;;;5.10;1.53;;;8.80;93.90;;;;;;5015712;28;20211;-81
2023/04/02 11:40:15;;;;;;;4.00;1.60;;;9.40;92.10;;;;;;5011769;28;20199;-80
2023/04/02 11:42:43;;;;;;;4.13;1.50;;;9.30;91.90;;;;;;5015198;28;20661;-80
2023/04/02 11:45:25;;;;;;;2.87;1.40;;;9.60;91.70;;;;;;5013001;28;20219;-78
2023/04/02 11:47:59;;;;;;;7.73;1.67;;;10.50;92.10;;;;;;5013565;28;20536;-79
2023/04/02 11:50:34;;;;;;;2.10;1.67;;;11.20;89.30;;;;;;5013553;28;20255;-79
2023/04/02 11:53:19;;;;;;;4.17;1.67;;;11.20;86.20;;;;;;5015462;28;20234;-81
2023/04/02 11:56:03;;;;;;;6.03;1.97;;;12.00;86.30;;;;;;5016243;28;20204;-81
2023/04/02 11:58:41;;;;;;;2.37;1.17;;;12.50;81.30;;;;;;5015712;28;21145;-80
2023/04/02 12:01:38;;;;;;;3.33;1.43;;;11.90;80.20;;;;;;5019986;28;20219;-80
2023/04/02 12:04:42;;;;;;;3.50;1.40;;;10.90;82.90;;;;;;5018084;28;20210;-80
2023/04/02 12:07:35;;;;;;;4.40;2.17;;;10.20;87.50;;;;;;5017194;28;20542;-79
2023/04/02 12:10:15;;;;;;;3.80;1.47;;;9.90;86.60;;;;;;5018682;28;20286;-81
2023/04/02 12:12:41;;;;;;;2.07;1.37;;;9.60;88.70;;;;;;5017783;28;20199;-80
2023/04/02 12:15:30;;;;;;;3.83;1.43;;;9.30;90.60;;;;;;5020242;28;20756;-82
2023/04/02 12:18:22;;;;;;;5.30;1.63;;;9.70;88.30;;;;;;5010434;28;20277;-80
2023/04/02 12:20:55;;;;;;;5.53;2.13;;;10.00;88.40;;;;;;5017830;28;20207;-78
2023/04/02 12:23:30;;;;;;;2.70;1.93;;;9.80;87.60;;;;;;5014981;28;20305;-79
2023/04/02 12:26:07;;;;;;;1.33;0.90;;;9.40;90.40;;;;;;5019110;28;20269;-79
2023/04/02 12:28:36;;;;;;;3.90;1.60;;;9.80;90.10;;;;;;5014513;28;20203;-79
2023/04/02 12:31:04;;;;;;;4.00;1.13;;;10.00;87.00;;;;;;5018786;28;20218;-79
2023/04/02 12:33:32;;;;;;;3.33;1.73;;;9.70;86.90;;;;;;5019257;28;20198;-79
2023/04/02 12:36:00;;;;;;;2.50;1.17;;;9.50;87.30;;;;;;5017493;28;20215;-79
2023/04/02 12:38:28;;;;;;;2.90;1.97;;;9.40;88.10;;;;;;5018886;28;20673;-79
2023/04/02 12:40:59;;;;;;;3.53;1.43;;;10.50;86.10;;;;;;5019388;28;20192;-79
2023/04/02 12:43:36;;;;;;;4.13;1.10;;;11.90;83.90;;;;;;5019033;28;20203;-80
2023/04/02 12:46:05;;;;;;;5.17;1.50;;;12.40;76.80;;;;;;5014978;28;20219;-79
2023/04/02 12:48:32;;;;;;;2.23;1.13;;;11.90;78.60;;;;;;5019350;28;20714;-80
2023/04/02 12:50:58;;;;;;;4.53;1.27;;;11.30;75.70;;;;;;5019270;28;20199;-79
2023/04/02 12:53:33;;;;;;;1.53;0.90;;;10.80;78.80;;;;;;5018867;28;20204;-79
2023/04/02 12:55:59;;;;;;;2.30;1.50;;;10.40;79.70;;;;;;5015327;28;20431;-80
2023/04/02 12:58:40;;;;;;;3.33;0.97;;;10.30;81.00;;;;;;5018575;28;20693;-80
2023/04/02 13:01:22;;;;;;;2.37;1.97;;;10.70;85.00;;;;;;5014664;28;20200;-79
2023/04/02 13:04:07;;;;;;;2.50;1.47;;;12.50;78.20;;;;;;5016898;28;20729;-79
2023/04/02 13:06:37;;;;;;;2.63;1.20;;;12.50;74.50;;;;;;5019126;28;20675;-80
2023/04/02 13:09:39;;;;;;;3.10;1.83;;;12.10;73.60;;;;;;5020403;28;20199;-78
2023/04/02 13:12:06;;;;;;;2.67;0.97;;;10.90;78.30;;;;;;5014643;28;20204;-81
2023/04/02 13:14:31;;;;;;;2.43;1.03;;;10.80;76.60;;;;;;5018336;28;20299;-79
2023/04/02 13:16:57;;;;;;;2.63;1.10;;;10.50;76.30;;;;;;5018525;28;20917;-80
2023/04/02 13:19:28;;;;;;;2.47;0.90;;;10.20;78.10;;;;;;5018388;28;20692;-82
2023/04/02 13:21:55;;;;;;;3.13;1.20;;;10.30;79.90;;;;;;5016975;28;20192;-80
2023/04/02 13:24:26;;;;;;;5.57;1.50;;;10.60;79.10;;;;;;5018663;28;20206;-81
2023/04/02 13:26:57;;;;;;;2.43;1.37;;;10.50;78.00;;;;;;5018312;28;20234;-80
2023/04/02 13:29:23;;;;;;;1.97;0.93;;;10.50;78.20;;;;;;5016079;28;20215;-79
2023/04/02 13:31:49;;;;;;;0.93;0.73;;;10.50;78.00;;;;;;5017897;28;20572;-80
2023/04/02 13:34:15;;;;;;;3.43;1.37;;;10.90;78.40;;;;;;5018421;28;20204;-80
2023/04/02 13:36:41;;;;;;;9.27;1.40;;;12.10;77.90;;;;;;5018187;28;21315;-79